sensor_id;sensor_type;location;lat;lon;timestamp;P1;durP1;ratioP1;P2;durP2;ratioP2
28176;SDS011;15461;41.652;9.378;2023-06-14T00:00:51;25.38;;;12.23;;
28176;SDS011;15461;41.652;9.378;2023-06-14T00:03:18;22.27;;;11.55;;
28176;SDS011;15461;41.652;9.378;2023-06-14T00:05:44;20.30;;;10.57;;
28176;SDS011;15461;41.652;9.378;2023-06-14T00:08:11;19.38;;;9.93;;
28176;SDS011;15461;41.652;9.378;2023-06-14T00:10:38;20.55;;;10.65;;
28176;SDS011;15461;41.652;9.378;2023-06-14T00:13:07;18.35;;;10.35;;
28176;SDS011;15461;41.652;9.378;2023-06-14T00:15:34;25.85;;;10.23;;
28176;SDS011;15461;41.652;9.378;2023-06-14T00:18:00;17.27;;;8.45;;
28176;SDS011;15461;41.652;9.378;2023-06-14T00:20:27;13.73;;;7.68;;
28176;SDS011;15461;41.652;9.378;2023-06-14T00:22:54;10.75;;;7.50;;
28176;SDS011;15461;41.652;9.378;2023-06-14T00:25:21;12.68;;;6.85;;
28176;SDS011;15461;41.652;9.378;2023-06-14T00:27:51;14.65;;;6.50;;
28176;SDS011;15461;41.652;9.378;2023-06-14T00:30:17;12.40;;;6.68;;
28176;SDS011;15461;41.652;9.378;2023-06-14T00:32:44;14.85;;;6.38;;
28176;SDS011;15461;41.652;9.378;2023-06-14T00:35:10;10.60;;;6.22;;
28176;SDS011;15461;41.652;9.378;2023-06-14T00:37:37;10.38;;;6.55;;
28176;SDS011;15461;41.652;9.378;2023-06-14T00:40:03;14.27;;;6.00;;
28176;SDS011;15461;41.652;9.378;2023-06-14T00:42:30;9.65;;;6.05;;
28176;SDS011;15461;41.652;9.378;2023-06-14T00:44:56;13.73;;;5.93;;
28176;SDS011;15461;41.652;9.378;2023-06-14T00:47:23;13.98;;;6.75;;
28176;SDS011;15461;41.652;9.378;2023-06-14T00:49:50;13.57;;;6.97;;
28176;SDS011;15461;41.652;9.378;2023-06-14T00:52:17;12.45;;;7.93;;
28176;SDS011;15461;41.652;9.378;2023-06-14T00:54:43;16.75;;;6.93;;
28176;SDS011;15461;41.652;9.378;2023-06-14T00:57:09;16.58;;;6.70;;
28176;SDS011;15461;41.652;9.378;2023-06-14T00:59:38;11.25;;;6.55;;
28176;SDS011;15461;41.652;9.378;2023-06-14T01:02:11;11.77;;;6.10;;
28176;SDS011;15461;41.652;9.378;2023-06-14T01:04:37;8.57;;;6.18;;
28176;SDS011;15461;41.652;9.378;2023-06-14T01:07:11;11.10;;;5.82;;
28176;SDS011;15461;41.652;9.378;2023-06-14T01:12:39;12.60;;;6.30;;
28176;SDS011;15461;41.652;9.378;2023-06-14T01:15:16;11.20;;;5.90;;
28176;SDS011;15461;41.652;9.378;2023-06-14T01:17:44;8.13;;;5.57;;
28176;SDS011;15461;41.652;9.378;2023-06-14T01:20:13;11.10;;;6.50;;
28176;SDS011;15461;41.652;9.378;2023-06-14T01:22:55;14.18;;;6.55;;
28176;SDS011;15461;41.652;9.378;2023-06-14T01:25:22;13.52;;;6.55;;
28176;SDS011;15461;41.652;9.378;2023-06-14T01:27:49;13.32;;;6.53;;
28176;SDS011;15461;41.652;9.378;2023-06-14T01:30:18;11.00;;;5.72;;
28176;SDS011;15461;41.652;9.378;2023-06-14T01:32:46;14.30;;;6.25;;
28176;SDS011;15461;41.652;9.378;2023-06-14T01:35:13;13.27;;;5.68;;
28176;SDS011;15461;41.652;9.378;2023-06-14T01:37:40;13.68;;;5.53;;
28176;SDS011;15461;41.652;9.378;2023-06-14T01:40:07;10.50;;;6.07;;
28176;SDS011;15461;41.652;9.378;2023-06-14T01:42:34;9.57;;;6.18;;
28176;SDS011;15461;41.652;9.378;2023-06-14T01:45:04;10.50;;;6.25;;
28176;SDS011;15461;41.652;9.378;2023-06-14T01:47:31;12.23;;;5.63;;
28176;SDS011;15461;41.652;9.378;2023-06-14T01:49:57;11.75;;;6.05;;
28176;SDS011;15461;41.652;9.378;2023-06-14T01:52:23;9.25;;;6.05;;
28176;SDS011;15461;41.652;9.378;2023-06-14T01:54:50;10.45;;;5.68;;
28176;SDS011;15461;41.652;9.378;2023-06-14T01:57:16;9.43;;;5.30;;
28176;SDS011;15461;41.652;9.378;2023-06-14T01:59:42;6.20;;;5.30;;
28176;SDS011;15461;41.652;9.378;2023-06-14T02:02:08;9.75;;;5.63;;
28176;SDS011;15461;41.652;9.378;2023-06-14T02:04:34;10.43;;;5.88;;
28176;SDS011;15461;41.652;9.378;2023-06-14T02:06:59;14.65;;;5.78;;
28176;SDS011;15461;41.652;9.378;2023-06-14T02:09:25;16.48;;;5.80;;
28176;SDS011;15461;41.652;9.378;2023-06-14T02:11:53;9.63;;;5.53;;
28176;SDS011;15461;41.652;9.378;2023-06-14T02:14:19;11.48;;;5.35;;
28176;SDS011;15461;41.652;9.378;2023-06-14T02:16:45;8.38;;;5.68;;
28176;SDS011;15461;41.652;9.378;2023-06-14T02:19:17;9.75;;;5.75;;
28176;SDS011;15461;41.652;9.378;2023-06-14T02:21:44;9.00;;;5.40;;
28176;SDS011;15461;41.652;9.378;2023-06-14T02:24:11;12.13;;;5.47;;
28176;SDS011;15461;41.652;9.378;2023-06-14T02:26:38;14.48;;;5.65;;
28176;SDS011;15461;41.652;9.378;2023-06-14T02:29:04;9.88;;;5.43;;
28176;SDS011;15461;41.652;9.378;2023-06-14T02:31:31;13.20;;;5.10;;
28176;SDS011;15461;41.652;9.378;2023-06-14T02:33:57;11.05;;;5.10;;
28176;SDS011;15461;41.652;9.378;2023-06-14T02:36:23;8.40;;;4.95;;
28176;SDS011;15461;41.652;9.378;2023-06-14T02:38:50;9.93;;;5.45;;
28176;SDS011;15461;41.652;9.378;2023-06-14T02:41:15;8.55;;;4.70;;
28176;SDS011;15461;41.652;9.378;2023-06-14T02:43:41;10.02;;;5.85;;
28176;SDS011;15461;41.652;9.378;2023-06-14T02:46:08;14.93;;;5.50;;
28176;SDS011;15461;41.652;9.378;2023-06-14T02:48:34;8.82;;;5.07;;
28176;SDS011;15461;41.652;9.378;2023-06-14T02:51:00;7.75;;;4.82;;
28176;SDS011;15461;41.652;9.378;2023-06-14T02:53:26;10.18;;;5.22;;
28176;SDS011;15461;41.652;9.378;2023-06-14T02:55:52;11.35;;;4.95;;
28176;SDS011;15461;41.652;9.378;2023-06-14T02:58:20;11.20;;;5.07;;
28176;SDS011;15461;41.652;9.378;2023-06-14T03:00:46;7.20;;;4.72;;
28176;SDS011;15461;41.652;9.378;2023-06-14T03:03:13;11.65;;;5.13;;
28176;SDS011;15461;41.652;9.378;2023-06-14T03:05:41;7.22;;;4.65;;
28176;SDS011;15461;41.652;9.378;2023-06-14T03:08:18;7.68;;;4.95;;
28176;SDS011;15461;41.652;9.378;2023-06-14T03:10:46;12.63;;;5.00;;
28176;SDS011;15461;41.652;9.378;2023-06-14T03:13:13;13.45;;;5.15;;
28176;SDS011;15461;41.652;9.378;2023-06-14T03:15:41;8.63;;;4.90;;
28176;SDS011;15461;41.652;9.378;2023-06-14T03:18:09;6.90;;;4.82;;
28176;SDS011;15461;41.652;9.378;2023-06-14T03:20:35;11.75;;;4.43;;
28176;SDS011;15461;41.652;9.378;2023-06-14T03:23:01;7.15;;;4.72;;
28176;SDS011;15461;41.652;9.378;2023-06-14T03:25:28;8.23;;;5.28;;
28176;SDS011;15461;41.652;9.378;2023-06-14T03:27:55;7.68;;;4.70;;
28176;SDS011;15461;41.652;9.378;2023-06-14T03:30:22;13.70;;;5.25;;
28176;SDS011;15461;41.652;9.378;2023-06-14T03:32:51;6.07;;;4.43;;
28176;SDS011;15461;41.652;9.378;2023-06-14T03:35:19;9.07;;;4.30;;
28176;SDS011;15461;41.652;9.378;2023-06-14T03:37:47;9.27;;;4.50;;
28176;SDS011;15461;41.652;9.378;2023-06-14T03:40:14;10.77;;;4.28;;
28176;SDS011;15461;41.652;9.378;2023-06-14T03:42:43;10.20;;;4.60;;
28176;SDS011;15461;41.652;9.378;2023-06-14T03:45:10;13.15;;;4.68;;
28176;SDS011;15461;41.652;9.378;2023-06-14T03:47:36;10.35;;;4.45;;
28176;SDS011;15461;41.652;9.378;2023-06-14T03:50:03;7.00;;;4.90;;
28176;SDS011;15461;41.652;9.378;2023-06-14T03:52:29;6.30;;;4.93;;
28176;SDS011;15461;41.652;9.378;2023-06-14T03:54:58;5.65;;;4.32;;
28176;SDS011;15461;41.652;9.378;2023-06-14T03:57:29;7.53;;;4.57;;
28176;SDS011;15461;41.652;9.378;2023-06-14T03:59:56;8.57;;;4.55;;
28176;SDS011;15461;41.652;9.378;2023-06-14T04:02:22;9.57;;;4.65;;
28176;SDS011;15461;41.652;9.378;2023-06-14T04:04:48;7.68;;;5.10;;
28176;SDS011;15461;41.652;9.378;2023-06-14T04:07:15;9.35;;;4.85;;
28176;SDS011;15461;41.652;9.378;2023-06-14T04:09:45;6.72;;;4.38;;
28176;SDS011;15461;41.652;9.378;2023-06-14T04:12:11;8.55;;;4.60;;
28176;SDS011;15461;41.652;9.378;2023-06-14T04:14:38;7.45;;;4.68;;
28176;SDS011;15461;41.652;9.378;2023-06-14T04:17:06;8.20;;;4.93;;
28176;SDS011;15461;41.652;9.378;2023-06-14T04:19:32;8.18;;;4.80;;
28176;SDS011;15461;41.652;9.378;2023-06-14T04:21:58;9.07;;;5.03;;
28176;SDS011;15461;41.652;9.378;2023-06-14T04:24:30;7.60;;;4.88;;
28176;SDS011;15461;41.652;9.378;2023-06-14T04:26:58;8.65;;;4.60;;
28176;SDS011;15461;41.652;9.378;2023-06-14T04:29:24;7.30;;;5.07;;
28176;SDS011;15461;41.652;9.378;2023-06-14T04:31:58;9.02;;;5.35;;
28176;SDS011;15461;41.652;9.378;2023-06-14T04:34:25;9.77;;;4.50;;
28176;SDS011;15461;41.652;9.378;2023-06-14T04:36:56;9.27;;;4.95;;
28176;SDS011;15461;41.652;9.378;2023-06-14T04:39:31;10.13;;;4.75;;
28176;SDS011;15461;41.652;9.378;2023-06-14T04:41:59;7.78;;;5.10;;
28176;SDS011;15461;41.652;9.378;2023-06-14T04:44:26;9.55;;;4.50;;
28176;SDS011;15461;41.652;9.378;2023-06-14T04:46:56;8.93;;;4.35;;
28176;SDS011;15461;41.652;9.378;2023-06-14T04:49:24;7.28;;;4.00;;
28176;SDS011;15461;41.652;9.378;2023-06-14T04:51:52;9.95;;;4.32;;
28176;SDS011;15461;41.652;9.378;2023-06-14T04:54:26;6.70;;;4.18;;
28176;SDS011;15461;41.652;9.378;2023-06-14T04:56:53;8.15;;;4.35;;
28176;SDS011;15461;41.652;9.378;2023-06-14T04:59:23;11.20;;;4.60;;
28176;SDS011;15461;41.652;9.378;2023-06-14T05:01:50;7.97;;;3.90;;
28176;SDS011;15461;41.652;9.378;2023-06-14T05:04:17;5.93;;;3.70;;
28176;SDS011;15461;41.652;9.378;2023-06-14T05:06:44;6.75;;;3.90;;
28176;SDS011;15461;41.652;9.378;2023-06-14T05:09:11;8.43;;;3.97;;
28176;SDS011;15461;41.652;9.378;2023-06-14T05:11:38;6.22;;;4.03;;
28176;SDS011;15461;41.652;9.378;2023-06-14T05:14:05;9.50;;;4.05;;
28176;SDS011;15461;41.652;9.378;2023-06-14T05:16:31;5.38;;;3.80;;
28176;SDS011;15461;41.652;9.378;2023-06-14T05:18:57;7.20;;;3.72;;
28176;SDS011;15461;41.652;9.378;2023-06-14T05:21:23;5.82;;;3.60;;
28176;SDS011;15461;41.652;9.378;2023-06-14T05:23:49;11.30;;;3.85;;
28176;SDS011;15461;41.652;9.378;2023-06-14T05:26:16;7.00;;;3.60;;
28176;SDS011;15461;41.652;9.378;2023-06-14T05:28:42;9.80;;;3.50;;
28176;SDS011;15461;41.652;9.378;2023-06-14T05:31:08;6.30;;;4.10;;
28176;SDS011;15461;41.652;9.378;2023-06-14T05:33:33;10.65;;;3.80;;
28176;SDS011;15461;41.652;9.378;2023-06-14T05:35:59;9.18;;;3.97;;
28176;SDS011;15461;41.652;9.378;2023-06-14T05:38:25;9.55;;;3.80;;
28176;SDS011;15461;41.652;9.378;2023-06-14T05:40:51;7.45;;;4.20;;
28176;SDS011;15461;41.652;9.378;2023-06-14T05:43:18;6.03;;;3.78;;
28176;SDS011;15461;41.652;9.378;2023-06-14T05:45:44;5.53;;;3.38;;
28176;SDS011;15461;41.652;9.378;2023-06-14T05:48:10;7.40;;;3.60;;
28176;SDS011;15461;41.652;9.378;2023-06-14T05:50:36;7.75;;;3.78;;
28176;SDS011;15461;41.652;9.378;2023-06-14T05:53:01;6.13;;;3.53;;
28176;SDS011;15461;41.652;9.378;2023-06-14T05:55:27;8.10;;;4.10;;
28176;SDS011;15461;41.652;9.378;2023-06-14T05:57:53;6.20;;;3.80;;
28176;SDS011;15461;41.652;9.378;2023-06-14T06:00:19;7.05;;;4.10;;
28176;SDS011;15461;41.652;9.378;2023-06-14T06:02:45;7.70;;;4.18;;
28176;SDS011;15461;41.652;9.378;2023-06-14T06:05:12;8.45;;;3.47;;
28176;SDS011;15461;41.652;9.378;2023-06-14T06:07:40;5.50;;;3.72;;
28176;SDS011;15461;41.652;9.378;2023-06-14T06:10:06;5.65;;;3.30;;
28176;SDS011;15461;41.652;9.378;2023-06-14T06:12:32;6.13;;;3.42;;
28176;SDS011;15461;41.652;9.378;2023-06-14T06:14:58;5.75;;;3.30;;
28176;SDS011;15461;41.652;9.378;2023-06-14T06:17:27;7.45;;;3.70;;
28176;SDS011;15461;41.652;9.378;2023-06-14T06:19:53;7.90;;;3.60;;
28176;SDS011;15461;41.652;9.378;2023-06-14T06:22:19;7.50;;;3.72;;
28176;SDS011;15461;41.652;9.378;2023-06-14T06:24:45;7.32;;;3.80;;
28176;SDS011;15461;41.652;9.378;2023-06-14T06:27:11;5.00;;;3.63;;
28176;SDS011;15461;41.652;9.378;2023-06-14T06:29:38;5.75;;;3.42;;
28176;SDS011;15461;41.652;9.378;2023-06-14T06:32:04;5.93;;;3.00;;
28176;SDS011;15461;41.652;9.378;2023-06-14T06:34:30;6.15;;;3.40;;
28176;SDS011;15461;41.652;9.378;2023-06-14T06:36:56;4.78;;;3.65;;
28176;SDS011;15461;41.652;9.378;2023-06-14T06:39:22;7.45;;;3.28;;
28176;SDS011;15461;41.652;9.378;2023-06-14T06:41:48;7.25;;;3.30;;
28176;SDS011;15461;41.652;9.378;2023-06-14T06:44:18;5.13;;;3.00;;
28176;SDS011;15461;41.652;9.378;2023-06-14T06:46:48;5.50;;;2.83;;
28176;SDS011;15461;41.652;9.378;2023-06-14T06:49:14;6.28;;;2.90;;
28176;SDS011;15461;41.652;9.378;2023-06-14T06:51:40;9.30;;;3.05;;
28176;SDS011;15461;41.652;9.378;2023-06-14T06:54:07;5.38;;;3.08;;
28176;SDS011;15461;41.652;9.378;2023-06-14T06:56:34;3.67;;;2.60;;
28176;SDS011;15461;41.652;9.378;2023-06-14T06:59:00;5.93;;;3.20;;
28176;SDS011;15461;41.652;9.378;2023-06-14T07:01:26;9.52;;;2.60;;
28176;SDS011;15461;41.652;9.378;2023-06-14T07:03:56;4.30;;;2.45;;
28176;SDS011;15461;41.652;9.378;2023-06-14T07:06:22;4.32;;;2.80;;
28176;SDS011;15461;41.652;9.378;2023-06-14T07:08:48;5.00;;;2.53;;
28176;SDS011;15461;41.652;9.378;2023-06-14T07:11:14;5.85;;;2.40;;
28176;SDS011;15461;41.652;9.378;2023-06-14T07:13:39;5.22;;;2.20;;
28176;SDS011;15461;41.652;9.378;2023-06-14T07:16:05;4.90;;;2.50;;
28176;SDS011;15461;41.652;9.378;2023-06-14T07:18:31;4.43;;;2.28;;
28176;SDS011;15461;41.652;9.378;2023-06-14T07:20:57;5.38;;;2.40;;
28176;SDS011;15461;41.652;9.378;2023-06-14T07:23:23;4.00;;;2.05;;
28176;SDS011;15461;41.652;9.378;2023-06-14T07:25:49;3.42;;;2.10;;
28176;SDS011;15461;41.652;9.378;2023-06-14T07:28:16;5.63;;;2.40;;
28176;SDS011;15461;41.652;9.378;2023-06-14T07:30:43;4.60;;;2.33;;
28176;SDS011;15461;41.652;9.378;2023-06-14T07:33:08;3.20;;;1.80;;
28176;SDS011;15461;41.652;9.378;2023-06-14T07:35:35;2.88;;;1.98;;
28176;SDS011;15461;41.652;9.378;2023-06-14T07:38:01;3.05;;;2.10;;
28176;SDS011;15461;41.652;9.378;2023-06-14T07:40:27;4.35;;;1.83;;
28176;SDS011;15461;41.652;9.378;2023-06-14T07:42:53;4.22;;;2.10;;
28176;SDS011;15461;41.652;9.378;2023-06-14T07:45:20;2.35;;;1.60;;
28176;SDS011;15461;41.652;9.378;2023-06-14T07:47:45;3.78;;;1.88;;
28176;SDS011;15461;41.652;9.378;2023-06-14T07:50:11;5.25;;;2.20;;
28176;SDS011;15461;41.652;9.378;2023-06-14T07:52:39;4.40;;;2.00;;
28176;SDS011;15461;41.652;9.378;2023-06-14T07:55:05;4.00;;;2.03;;
28176;SDS011;15461;41.652;9.378;2023-06-14T07:57:31;4.70;;;2.08;;
28176;SDS011;15461;41.652;9.378;2023-06-14T07:59:57;2.70;;;1.80;;
28176;SDS011;15461;41.652;9.378;2023-06-14T08:02:23;4.45;;;2.40;;
28176;SDS011;15461;41.652;9.378;2023-06-14T08:04:49;4.95;;;1.90;;
28176;SDS011;15461;41.652;9.378;2023-06-14T08:07:15;3.85;;;2.10;;
28176;SDS011;15461;41.652;9.378;2023-06-14T08:09:41;3.42;;;1.67;;
28176;SDS011;15461;41.652;9.378;2023-06-14T08:12:07;2.22;;;1.83;;
28176;SDS011;15461;41.652;9.378;2023-06-14T08:14:34;3.83;;;1.95;;
28176;SDS011;15461;41.652;9.378;2023-06-14T08:17:01;2.85;;;1.90;;
28176;SDS011;15461;41.652;9.378;2023-06-14T08:19:27;13.52;;;3.15;;
28176;SDS011;15461;41.652;9.378;2023-06-14T08:21:53;4.28;;;2.25;;
28176;SDS011;15461;41.652;9.378;2023-06-14T08:24:23;2.85;;;1.65;;
28176;SDS011;15461;41.652;9.378;2023-06-14T08:26:49;4.13;;;2.15;;
28176;SDS011;15461;41.652;9.378;2023-06-14T08:29:15;3.28;;;2.17;;
28176;SDS011;15461;41.652;9.378;2023-06-14T08:31:41;6.28;;;2.30;;
28176;SDS011;15461;41.652;9.378;2023-06-14T08:34:07;3.35;;;1.92;;
28176;SDS011;15461;41.652;9.378;2023-06-14T08:36:33;6.47;;;1.98;;
28176;SDS011;15461;41.652;9.378;2023-06-14T08:39:00;3.60;;;1.83;;
28176;SDS011;15461;41.652;9.378;2023-06-14T08:41:27;5.35;;;1.85;;
28176;SDS011;15461;41.652;9.378;2023-06-14T08:43:55;4.38;;;1.80;;
28176;SDS011;15461;41.652;9.378;2023-06-14T08:46:21;5.22;;;2.00;;
28176;SDS011;15461;41.652;9.378;2023-06-14T08:48:50;4.95;;;2.20;;
28176;SDS011;15461;41.652;9.378;2023-06-14T08:51:20;3.42;;;1.95;;
28176;SDS011;15461;41.652;9.378;2023-06-14T08:53:52;4.80;;;2.20;;
28176;SDS011;15461;41.652;9.378;2023-06-14T08:56:26;5.85;;;2.53;;
28176;SDS011;15461;41.652;9.378;2023-06-14T08:58:53;5.22;;;2.13;;
28176;SDS011;15461;41.652;9.378;2023-06-14T09:01:22;8.10;;;2.10;;
28176;SDS011;15461;41.652;9.378;2023-06-14T09:03:49;4.03;;;2.05;;
28176;SDS011;15461;41.652;9.378;2023-06-14T09:06:16;4.38;;;2.03;;
28176;SDS011;15461;41.652;9.378;2023-06-14T09:08:44;4.28;;;2.00;;
28176;SDS011;15461;41.652;9.378;2023-06-14T09:11:11;4.38;;;2.10;;
28176;SDS011;15461;41.652;9.378;2023-06-14T09:13:39;6.45;;;2.08;;
28176;SDS011;15461;41.652;9.378;2023-06-14T09:16:06;5.65;;;1.90;;
28176;SDS011;15461;41.652;9.378;2023-06-14T09:18:39;5.93;;;1.80;;
28176;SDS011;15461;41.652;9.378;2023-06-14T09:21:15;5.10;;;2.03;;
28176;SDS011;15461;41.652;9.378;2023-06-14T09:23:42;9.30;;;2.20;;
28176;SDS011;15461;41.652;9.378;2023-06-14T09:26:10;4.55;;;2.00;;
28176;SDS011;15461;41.652;9.378;2023-06-14T09:28:55;5.53;;;2.22;;
28176;SDS011;15461;41.652;9.378;2023-06-14T09:31:21;4.57;;;2.22;;
28176;SDS011;15461;41.652;9.378;2023-06-14T09:33:48;7.78;;;2.00;;
28176;SDS011;15461;41.652;9.378;2023-06-14T09:36:20;4.65;;;2.15;;
28176;SDS011;15461;41.652;9.378;2023-06-14T09:41:19;3.13;;;1.90;;
28176;SDS011;15461;41.652;9.378;2023-06-14T09:43:46;7.20;;;2.22;;
28176;SDS011;15461;41.652;9.378;2023-06-14T09:46:12;8.57;;;2.80;;
28176;SDS011;15461;41.652;9.378;2023-06-14T09:48:38;12.18;;;2.63;;
28176;SDS011;15461;41.652;9.378;2023-06-14T09:51:09;4.32;;;2.20;;
28176;SDS011;15461;41.652;9.378;2023-06-14T09:53:39;14.32;;;2.38;;
28176;SDS011;15461;41.652;9.378;2023-06-14T09:56:06;3.80;;;2.15;;
28176;SDS011;15461;41.652;9.378;2023-06-14T09:58:33;3.97;;;2.30;;
28176;SDS011;15461;41.652;9.378;2023-06-14T10:01:04;6.65;;;2.10;;
28176;SDS011;15461;41.652;9.378;2023-06-14T10:03:33;7.00;;;2.70;;
28176;SDS011;15461;41.652;9.378;2023-06-14T10:06:02;3.88;;;2.10;;
28176;SDS011;15461;41.652;9.378;2023-06-14T10:08:31;3.90;;;2.50;;
28176;SDS011;15461;41.652;9.378;2023-06-14T10:11:02;6.30;;;2.70;;
28176;SDS011;15461;41.652;9.378;2023-06-14T10:13:28;6.03;;;2.42;;
28176;SDS011;15461;41.652;9.378;2023-06-14T10:16:12;3.38;;;2.08;;
28176;SDS011;15461;41.652;9.378;2023-06-14T10:19:01;4.30;;;2.38;;
28176;SDS011;15461;41.652;9.378;2023-06-14T10:21:37;3.83;;;2.22;;
28176;SDS011;15461;41.652;9.378;2023-06-14T10:24:12;8.18;;;2.47;;
28176;SDS011;15461;41.652;9.378;2023-06-14T10:26:50;2.25;;;2.05;;
28176;SDS011;15461;41.652;9.378;2023-06-14T10:29:17;3.50;;;2.38;;
28176;SDS011;15461;41.652;9.378;2023-06-14T10:31:44;2.95;;;2.20;;
28176;SDS011;15461;41.652;9.378;2023-06-14T10:34:24;3.28;;;2.28;;
28176;SDS011;15461;41.652;9.378;2023-06-14T10:37:00;2.67;;;2.00;;
28176;SDS011;15461;41.652;9.378;2023-06-14T10:39:31;5.90;;;2.20;;
28176;SDS011;15461;41.652;9.378;2023-06-14T10:41:58;3.35;;;2.15;;
28176;SDS011;15461;41.652;9.378;2023-06-14T10:46:55;4.15;;;2.08;;
28176;SDS011;15461;41.652;9.378;2023-06-14T10:52:10;4.28;;;2.08;;
28176;SDS011;15461;41.652;9.378;2023-06-14T10:57:29;4.72;;;2.30;;
28176;SDS011;15461;41.652;9.378;2023-06-14T11:00:00;8.48;;;2.42;;
28176;SDS011;15461;41.652;9.378;2023-06-14T11:05:30;3.55;;;2.45;;
28176;SDS011;15461;41.652;9.378;2023-06-14T11:10:40;13.00;;;3.08;;
28176;SDS011;15461;41.652;9.378;2023-06-14T11:13:08;4.88;;;2.33;;
28176;SDS011;15461;41.652;9.378;2023-06-14T11:15:35;17.45;;;2.72;;
28176;SDS011;15461;41.652;9.378;2023-06-14T11:18:04;11.93;;;2.60;;
28176;SDS011;15461;41.652;9.378;2023-06-14T11:20:32;6.18;;;2.35;;
28176;SDS011;15461;41.652;9.378;2023-06-14T11:23:00;6.22;;;2.42;;
28176;SDS011;15461;41.652;9.378;2023-06-14T11:25:27;9.38;;;2.65;;
28176;SDS011;15461;41.652;9.378;2023-06-14T11:27:53;5.22;;;2.40;;
28176;SDS011;15461;41.652;9.378;2023-06-14T11:30:20;6.53;;;2.35;;
28176;SDS011;15461;41.652;9.378;2023-06-14T11:32:47;8.52;;;2.40;;
28176;SDS011;15461;41.652;9.378;2023-06-14T11:35:13;8.27;;;2.03;;
28176;SDS011;15461;41.652;9.378;2023-06-14T11:37:40;7.88;;;2.38;;
28176;SDS011;15461;41.652;9.378;2023-06-14T11:40:07;9.55;;;2.50;;
28176;SDS011;15461;41.652;9.378;2023-06-14T11:42:36;8.57;;;2.53;;
28176;SDS011;15461;41.652;9.378;2023-06-14T11:45:03;17.65;;;3.50;;
28176;SDS011;15461;41.652;9.378;2023-06-14T11:47:31;22.38;;;3.40;;
28176;SDS011;15461;41.652;9.378;2023-06-14T11:49:58;29.33;;;3.42;;
28176;SDS011;15461;41.652;9.378;2023-06-14T11:52:24;9.70;;;2.67;;
28176;SDS011;15461;41.652;9.378;2023-06-14T11:54:51;6.78;;;2.47;;
28176;SDS011;15461;41.652;9.378;2023-06-14T11:57:17;7.75;;;2.63;;
28176;SDS011;15461;41.652;9.378;2023-06-14T11:59:44;5.45;;;2.60;;
28176;SDS011;15461;41.652;9.378;2023-06-14T12:02:14;6.70;;;2.33;;
28176;SDS011;15461;41.652;9.378;2023-06-14T12:04:43;5.85;;;2.70;;
28176;SDS011;15461;41.652;9.378;2023-06-14T12:07:15;6.47;;;2.47;;
28176;SDS011;15461;41.652;9.378;2023-06-14T12:12:24;5.22;;;2.60;;
28176;SDS011;15461;41.652;9.378;2023-06-14T12:14:51;7.80;;;2.80;;
28176;SDS011;15461;41.652;9.378;2023-06-14T12:17:17;6.28;;;2.75;;
28176;SDS011;15461;41.652;9.378;2023-06-14T12:19:44;6.80;;;2.65;;
28176;SDS011;15461;41.652;9.378;2023-06-14T12:22:11;9.20;;;3.00;;
28176;SDS011;15461;41.652;9.378;2023-06-14T12:24:38;6.85;;;2.70;;
28176;SDS011;15461;41.652;9.378;2023-06-14T12:27:04;5.18;;;2.63;;
28176;SDS011;15461;41.652;9.378;2023-06-14T12:29:31;3.95;;;2.70;;
28176;SDS011;15461;41.652;9.378;2023-06-14T12:31:57;5.25;;;2.80;;
28176;SDS011;15461;41.652;9.378;2023-06-14T12:34:29;6.47;;;2.60;;
28176;SDS011;15461;41.652;9.378;2023-06-14T12:39:22;6.68;;;2.90;;
28176;SDS011;15461;41.652;9.378;2023-06-14T12:41:49;12.23;;;3.63;;
28176;SDS011;15461;41.652;9.378;2023-06-14T12:44:15;6.18;;;3.00;;
28176;SDS011;15461;41.652;9.378;2023-06-14T12:46:41;8.00;;;3.08;;
28176;SDS011;15461;41.652;9.378;2023-06-14T12:49:11;6.70;;;2.75;;
28176;SDS011;15461;41.652;9.378;2023-06-14T12:51:38;8.25;;;2.45;;
28176;SDS011;15461;41.652;9.378;2023-06-14T12:54:05;5.18;;;3.03;;
28176;SDS011;15461;41.652;9.378;2023-06-14T12:56:31;8.82;;;3.20;;
28176;SDS011;15461;41.652;9.378;2023-06-14T12:58:58;6.57;;;2.70;;
28176;SDS011;15461;41.652;9.378;2023-06-14T13:01:24;7.57;;;2.83;;
28176;SDS011;15461;41.652;9.378;2023-06-14T13:03:50;4.45;;;2.53;;
28176;SDS011;15461;41.652;9.378;2023-06-14T13:06:21;7.60;;;3.20;;
28176;SDS011;15461;41.652;9.378;2023-06-14T13:08:47;9.68;;;3.10;;
28176;SDS011;15461;41.652;9.378;2023-06-14T13:11:14;6.28;;;2.90;;
28176;SDS011;15461;41.652;9.378;2023-06-14T13:13:40;10.23;;;2.95;;
28176;SDS011;15461;41.652;9.378;2023-06-14T13:16:05;7.35;;;3.22;;
28176;SDS011;15461;41.652;9.378;2023-06-14T13:18:31;9.30;;;3.50;;
28176;SDS011;15461;41.652;9.378;2023-06-14T13:20:57;6.10;;;3.13;;
28176;SDS011;15461;41.652;9.378;2023-06-14T13:23:23;6.50;;;3.10;;
28176;SDS011;15461;41.652;9.378;2023-06-14T13:25:49;9.98;;;3.28;;
28176;SDS011;15461;41.652;9.378;2023-06-14T13:28:16;9.77;;;3.75;;
28176;SDS011;15461;41.652;9.378;2023-06-14T13:30:42;11.70;;;3.30;;
28176;SDS011;15461;41.652;9.378;2023-06-14T13:33:08;8.93;;;3.53;;
28176;SDS011;15461;41.652;9.378;2023-06-14T13:35:34;8.48;;;3.28;;
28176;SDS011;15461;41.652;9.378;2023-06-14T13:38:00;11.18;;;3.45;;
28176;SDS011;15461;41.652;9.378;2023-06-14T13:40:26;9.02;;;3.40;;
28176;SDS011;15461;41.652;9.378;2023-06-14T13:42:52;9.25;;;3.28;;
28176;SDS011;15461;41.652;9.378;2023-06-14T13:45:18;8.55;;;3.50;;
28176;SDS011;15461;41.652;9.378;2023-06-14T13:47:43;6.95;;;2.97;;
28176;SDS011;15461;41.652;9.378;2023-06-14T13:50:10;4.35;;;2.30;;
28176;SDS011;15461;41.652;9.378;2023-06-14T13:52:35;4.97;;;2.08;;
28176;SDS011;15461;41.652;9.378;2023-06-14T13:55:02;3.28;;;1.90;;
28176;SDS011;15461;41.652;9.378;2023-06-14T13:57:28;3.92;;;1.88;;
28176;SDS011;15461;41.652;9.378;2023-06-14T13:59:53;3.60;;;2.67;;
28176;SDS011;15461;41.652;9.378;2023-06-14T14:02:20;5.10;;;2.20;;
28176;SDS011;15461;41.652;9.378;2023-06-14T14:04:46;3.35;;;2.10;;
28176;SDS011;15461;41.652;9.378;2023-06-14T14:07:18;2.50;;;1.70;;
28176;SDS011;15461;41.652;9.378;2023-06-14T14:09:45;2.90;;;2.00;;
28176;SDS011;15461;41.652;9.378;2023-06-14T14:12:12;3.17;;;1.88;;
28176;SDS011;15461;41.652;9.378;2023-06-14T14:14:39;3.75;;;2.15;;
28176;SDS011;15461;41.652;9.378;2023-06-14T14:17:05;5.95;;;2.13;;
28176;SDS011;15461;41.652;9.378;2023-06-14T14:19:32;4.75;;;1.77;;
28176;SDS011;15461;41.652;9.378;2023-06-14T14:21:58;3.50;;;1.73;;
28176;SDS011;15461;41.652;9.378;2023-06-14T14:24:23;3.70;;;1.88;;
28176;SDS011;15461;41.652;9.378;2023-06-14T14:26:49;3.70;;;2.00;;
28176;SDS011;15461;41.652;9.378;2023-06-14T14:29:19;6.93;;;2.00;;
28176;SDS011;15461;41.652;9.378;2023-06-14T14:31:45;7.82;;;2.67;;
28176;SDS011;15461;41.652;9.378;2023-06-14T14:34:11;4.88;;;2.22;;
28176;SDS011;15461;41.652;9.378;2023-06-14T14:36:37;6.72;;;2.15;;
28176;SDS011;15461;41.652;9.378;2023-06-14T14:39:07;3.38;;;1.90;;
28176;SDS011;15461;41.652;9.378;2023-06-14T14:41:33;3.47;;;1.90;;
28176;SDS011;15461;41.652;9.378;2023-06-14T14:43:59;2.97;;;1.80;;
28176;SDS011;15461;41.652;9.378;2023-06-14T14:46:26;6.95;;;1.88;;
28176;SDS011;15461;41.652;9.378;2023-06-14T14:48:52;2.80;;;1.52;;
28176;SDS011;15461;41.652;9.378;2023-06-14T14:51:18;3.45;;;1.88;;
28176;SDS011;15461;41.652;9.378;2023-06-14T14:53:44;2.60;;;1.65;;
28176;SDS011;15461;41.652;9.378;2023-06-14T14:56:10;2.17;;;1.77;;
28176;SDS011;15461;41.652;9.378;2023-06-14T14:58:37;3.88;;;1.80;;
28176;SDS011;15461;41.652;9.378;2023-06-14T15:01:03;7.43;;;2.08;;
28176;SDS011;15461;41.652;9.378;2023-06-14T15:03:31;3.03;;;1.80;;
28176;SDS011;15461;41.652;9.378;2023-06-14T15:05:57;4.22;;;2.20;;
28176;SDS011;15461;41.652;9.378;2023-06-14T15:08:22;3.20;;;2.00;;
28176;SDS011;15461;41.652;9.378;2023-06-14T15:10:48;3.30;;;2.15;;